sensor_id;sensor_type;location;lat;lon;timestamp;pressure;altitude;pressure_sealevel;temperature;humidity
37778;BME280;23615;51.506;7.678;2023-09-18T00:00:05;99220.75;;;20.49;99.46
37778;BME280;23615;51.506;7.678;2023-09-18T00:02:34;99211.38;;;20.47;99.36
37778;BME280;23615;51.506;7.678;2023-09-18T00:04:59;99205.66;;;20.48;99.21
37778;BME280;23615;51.506;7.678;2023-09-18T00:07:24;99205.94;;;20.47;99.13
37778;BME280;23615;51.506;7.678;2023-09-18T00:09:50;99193.19;;;20.47;99.30
37778;BME280;23615;51.506;7.678;2023-09-18T00:12:16;99187.78;;;20.47;99.15
37778;BME280;23615;51.506;7.678;2023-09-18T00:14:41;99188.75;;;20.51;99.21
37778;BME280;23615;51.506;7.678;2023-09-18T00:17:07;99187.34;;;20.54;98.92
37778;BME280;23615;51.506;7.678;2023-09-18T00:19:32;99181.63;;;20.56;98.73
37778;BME280;23615;51.506;7.678;2023-09-18T00:21:58;99181.31;;;20.57;98.83
37778;BME280;23615;51.506;7.678;2023-09-18T00:24:26;99171.06;;;20.54;98.86
37778;BME280;23615;51.506;7.678;2023-09-18T00:26:51;99161.94;;;20.50;98.77
37778;BME280;23615;51.506;7.678;2023-09-18T00:29:18;99166.41;;;20.46;98.96
37778;BME280;23615;51.506;7.678;2023-09-18T00:31:43;99163.69;;;20.46;98.78
37778;BME280;23615;51.506;7.678;2023-09-18T00:34:08;99160.47;;;20.44;99.12
37778;BME280;23615;51.506;7.678;2023-09-18T00:36:33;99151.06;;;20.41;99.04
37778;BME280;23615;51.506;7.678;2023-09-18T00:38:59;99153.31;;;20.39;98.91
37778;BME280;23615;51.506;7.678;2023-09-18T00:41:24;99151.19;;;20.36;98.87
37778;BME280;23615;51.506;7.678;2023-09-18T00:43:49;99145.56;;;20.33;98.96
37778;BME280;23615;51.506;7.678;2023-09-18T00:46:14;99135.66;;;20.28;99.03
37778;BME280;23615;51.506;7.678;2023-09-18T00:48:40;99131.94;;;20.24;99.17
37778;BME280;23615;51.506;7.678;2023-09-18T00:51:06;99128.59;;;20.18;99.15
37778;BME280;23615;51.506;7.678;2023-09-18T00:53:33;99123.47;;;20.17;99.17
37778;BME280;23615;51.506;7.678;2023-09-18T00:56:00;99121.88;;;20.16;99.07
37778;BME280;23615;51.506;7.678;2023-09-18T00:58:27;99110.06;;;20.12;99.08
37778;BME280;23615;51.506;7.678;2023-09-18T01:00:53;99104.44;;;20.08;99.09
37778;BME280;23615;51.506;7.678;2023-09-18T01:03:19;99095.03;;;20.06;99.21
37778;BME280;23615;51.506;7.678;2023-09-18T01:05:46;99098.84;;;20.05;99.12
37778;BME280;23615;51.506;7.678;2023-09-18T01:08:11;99093.44;;;20.05;99.26
37778;BME280;23615;51.506;7.678;2023-09-18T01:10:43;99087.53;;;20.03;99.21
37778;BME280;23615;51.506;7.678;2023-09-18T01:13:14;99087.22;;;20.04;99.32
37778;BME280;23615;51.506;7.678;2023-09-18T01:15:58;99087.03;;;20.01;99.47
37778;BME280;23615;51.506;7.678;2023-09-18T01:18:27;99074.00;;;20.03;99.59
37778;BME280;23615;51.506;7.678;2023-09-18T01:20:52;99076.22;;;20.01;99.76
37778;BME280;23615;51.506;7.678;2023-09-18T01:23:17;99065.97;;;19.98;99.98
37778;BME280;23615;51.506;7.678;2023-09-18T01:25:43;99077.31;;;20.00;100.00
37778;BME280;23615;51.506;7.678;2023-09-18T01:28:08;99066.97;;;20.02;100.00
37778;BME280;23615;51.506;7.678;2023-09-18T01:30:33;99060.47;;;20.03;100.00
37778;BME280;23615;51.506;7.678;2023-09-18T01:33:01;99064.31;;;20.10;99.90
37778;BME280;23615;51.506;7.678;2023-09-18T01:35:28;99064.50;;;20.14;100.00
37778;BME280;23615;51.506;7.678;2023-09-18T01:37:59;99066.28;;;20.18;99.97
37778;BME280;23615;51.506;7.678;2023-09-18T01:40:25;99061.97;;;20.17;99.80
37778;BME280;23615;51.506;7.678;2023-09-18T01:42:51;99070.91;;;20.18;99.77
37778;BME280;23615;51.506;7.678;2023-09-18T01:45:17;99065.47;;;20.18;99.86
37778;BME280;23615;51.506;7.678;2023-09-18T01:47:42;99067.88;;;20.20;99.73
37778;BME280;23615;51.506;7.678;2023-09-18T01:50:08;99064.69;;;20.17;99.93
37778;BME280;23615;51.506;7.678;2023-09-18T01:52:33;99067.19;;;20.14;100.00
37778;BME280;23615;51.506;7.678;2023-09-18T01:55:02;99071.34;;;20.11;100.00
37778;BME280;23615;51.506;7.678;2023-09-18T01:57:29;99056.66;;;20.12;100.00
37778;BME280;23615;51.506;7.678;2023-09-18T01:59:54;99054.28;;;20.11;100.00
37778;BME280;23615;51.506;7.678;2023-09-18T02:02:20;99054.75;;;20.13;99.98
37778;BME280;23615;51.506;7.678;2023-09-18T02:04:45;99048.25;;;20.14;99.87
37778;BME280;23615;51.506;7.678;2023-09-18T02:07:10;99050.94;;;20.14;99.93
37778;BME280;23615;51.506;7.678;2023-09-18T02:09:35;99038.03;;;20.11;99.86
37778;BME280;23615;51.506;7.678;2023-09-18T02:12:01;99040.75;;;20.11;99.71
37778;BME280;23615;51.506;7.678;2023-09-18T02:14:26;99035.94;;;20.08;99.80
37778;BME280;23615;51.506;7.678;2023-09-18T02:16:51;99032.75;;;20.06;99.86
37778;BME280;23615;51.506;7.678;2023-09-18T02:19:17;99026.84;;;20.04;99.73
37778;BME280;23615;51.506;7.678;2023-09-18T02:21:43;99024.94;;;20.04;99.73
37778;BME280;23615;51.506;7.678;2023-09-18T02:24:09;99018.72;;;20.04;99.81
37778;BME280;23615;51.506;7.678;2023-09-18T02:26:34;99020.00;;;20.06;99.50
37778;BME280;23615;51.506;7.678;2023-09-18T02:29:02;99012.50;;;20.03;99.73
37778;BME280;23615;51.506;7.678;2023-09-18T02:31:28;99003.91;;;20.01;99.62
37778;BME280;23615;51.506;7.678;2023-09-18T02:33:54;99003.59;;;20.03;99.47
37778;BME280;23615;51.506;7.678;2023-09-18T02:36:19;98995.78;;;20.01;99.64
37778;BME280;23615;51.506;7.678;2023-09-18T02:38:44;98984.63;;;20.03;99.52
37778;BME280;23615;51.506;7.678;2023-09-18T02:41:10;98980.00;;;20.03;99.48
37778;BME280;23615;51.506;7.678;2023-09-18T02:43:35;98978.88;;;20.04;99.47
37778;BME280;23615;51.506;7.678;2023-09-18T02:46:03;98964.75;;;20.07;99.45
37778;BME280;23615;51.506;7.678;2023-09-18T02:48:28;98955.00;;;20.06;99.51
37778;BME280;23615;51.506;7.678;2023-09-18T02:50:53;98952.50;;;20.10;99.27
37778;BME280;23615;51.506;7.678;2023-09-18T02:53:20;98948.34;;;20.12;99.10
37778;BME280;23615;51.506;7.678;2023-09-18T02:55:47;98935.94;;;20.11;99.10
37778;BME280;23615;51.506;7.678;2023-09-18T02:58:12;98942.91;;;20.12;99.01
37778;BME280;23615;51.506;7.678;2023-09-18T03:00:45;98933.53;;;20.10;98.91
37778;BME280;23615;51.506;7.678;2023-09-18T03:03:11;98945.97;;;20.11;99.03
37778;BME280;23615;51.506;7.678;2023-09-18T03:05:37;98937.84;;;20.11;98.94
37778;BME280;23615;51.506;7.678;2023-09-18T03:08:03;98942.16;;;20.12;98.95
37778;BME280;23615;51.506;7.678;2023-09-18T03:10:32;98933.03;;;20.08;99.09
37778;BME280;23615;51.506;7.678;2023-09-18T03:12:58;98929.22;;;20.09;99.10
37778;BME280;23615;51.506;7.678;2023-09-18T03:15:23;98924.91;;;20.08;99.22
37778;BME280;23615;51.506;7.678;2023-09-18T03:17:50;98916.19;;;20.11;99.05
37778;BME280;23615;51.506;7.678;2023-09-18T03:20:15;98911.06;;;20.09;99.14
37778;BME280;23615;51.506;7.678;2023-09-18T03:22:40;98906.44;;;20.10;99.26
37778;BME280;23615;51.506;7.678;2023-09-18T03:25:06;98892.91;;;20.10;99.42
37778;BME280;23615;51.506;7.678;2023-09-18T03:27:31;98899.13;;;20.10;99.22
37778;BME280;23615;51.506;7.678;2023-09-18T03:30:00;98895.31;;;20.11;99.27
37778;BME280;23615;51.506;7.678;2023-09-18T03:32:25;98881.91;;;20.15;99.26
37778;BME280;23615;51.506;7.678;2023-09-18T03:34:51;98880.50;;;20.17;99.01
37778;BME280;23615;51.506;7.678;2023-09-18T03:37:16;98885.44;;;20.24;98.66
37778;BME280;23615;51.506;7.678;2023-09-18T03:39:41;98892.16;;;20.27;98.65
37778;BME280;23615;51.506;7.678;2023-09-18T03:42:07;98887.22;;;20.29;98.50
37778;BME280;23615;51.506;7.678;2023-09-18T03:44:32;98892.34;;;20.30;98.24
37778;BME280;23615;51.506;7.678;2023-09-18T03:46:57;98886.59;;;20.32;98.34
37778;BME280;23615;51.506;7.678;2023-09-18T03:49:22;98887.38;;;20.32;98.33
37778;BME280;23615;51.506;7.678;2023-09-18T03:51:48;98886.28;;;20.33;98.41
37778;BME280;23615;51.506;7.678;2023-09-18T03:54:13;98875.75;;;20.32;98.60
37778;BME280;23615;51.506;7.678;2023-09-18T03:56:38;98872.56;;;20.30;98.65
37778;BME280;23615;51.506;7.678;2023-09-18T03:59:03;98863.66;;;20.29;98.42
37778;BME280;23615;51.506;7.678;2023-09-18T04:01:30;98855.38;;;20.34;98.04
37778;BME280;23615;51.506;7.678;2023-09-18T04:03:55;98842.34;;;20.36;97.53
37778;BME280;23615;51.506;7.678;2023-09-18T04:06:21;98848.69;;;20.40;97.05
37778;BME280;23615;51.506;7.678;2023-09-18T04:08:49;98847.59;;;20.41;97.09
37778;BME280;23615;51.506;7.678;2023-09-18T04:11:14;98848.38;;;20.42;96.75
37778;BME280;23615;51.506;7.678;2023-09-18T04:13:39;98834.22;;;20.45;96.49
37778;BME280;23615;51.506;7.678;2023-09-18T04:16:05;98818.75;;;20.45;96.03
37778;BME280;23615;51.506;7.678;2023-09-18T04:18:30;98811.56;;;20.41;96.07
37778;BME280;23615;51.506;7.678;2023-09-18T04:20:55;98815.72;;;20.38;95.83
37778;BME280;23615;51.506;7.678;2023-09-18T04:23:23;98816.19;;;20.40;95.55
37778;BME280;23615;51.506;7.678;2023-09-18T04:25:49;98831.63;;;20.40;96.04
37778;BME280;23615;51.506;7.678;2023-09-18T04:28:16;98834.84;;;20.42;96.58
37778;BME280;23615;51.506;7.678;2023-09-18T04:30:42;98823.69;;;20.43;96.63
37778;BME280;23615;51.506;7.678;2023-09-18T04:33:08;98819.88;;;20.53;95.57
37778;BME280;23615;51.506;7.678;2023-09-18T04:35:33;98827.19;;;20.61;94.47
37778;BME280;23615;51.506;7.678;2023-09-18T04:37:59;98832.63;;;20.70;93.73
37778;BME280;23615;51.506;7.678;2023-09-18T04:40:26;98831.50;;;20.79;93.17
37778;BME280;23615;51.506;7.678;2023-09-18T04:42:52;98832.94;;;20.77;93.33
37778;BME280;23615;51.506;7.678;2023-09-18T04:45:17;98837.41;;;20.73;93.17
37778;BME280;23615;51.506;7.678;2023-09-18T04:47:43;98841.56;;;20.79;92.60
37778;BME280;23615;51.506;7.678;2023-09-18T04:50:09;98831.50;;;20.88;92.15
37778;BME280;23615;51.506;7.678;2023-09-18T04:52:35;98828.63;;;21.02;91.76
37778;BME280;23615;51.506;7.678;2023-09-18T04:55:00;98823.03;;;20.98;91.89
37778;BME280;23615;51.506;7.678;2023-09-18T04:57:26;98824.13;;;21.06;91.80
37778;BME280;23615;51.506;7.678;2023-09-18T04:59:51;98824.00;;;21.19;91.46
37778;BME280;23615;51.506;7.678;2023-09-18T05:02:16;98833.53;;;21.17;91.37
37778;BME280;23615;51.506;7.678;2023-09-18T05:04:42;98828.28;;;21.12;91.63
37778;BME280;23615;51.506;7.678;2023-09-18T05:07:07;98835.31;;;21.21;91.45
37778;BME280;23615;51.506;7.678;2023-09-18T05:09:32;98833.38;;;21.13;91.77
37778;BME280;23615;51.506;7.678;2023-09-18T05:11:59;98829.56;;;21.06;92.23
37778;BME280;23615;51.506;7.678;2023-09-18T05:14:24;98825.91;;;21.10;92.06
37778;BME280;23615;51.506;7.678;2023-09-18T05:16:50;98820.63;;;21.05;92.23
37778;BME280;23615;51.506;7.678;2023-09-18T05:19:15;98810.56;;;21.23;91.69
37778;BME280;23615;51.506;7.678;2023-09-18T05:21:40;98797.97;;;21.10;91.82
37778;BME280;23615;51.506;7.678;2023-09-18T05:24:07;98801.81;;;21.00;92.42
37778;BME280;23615;51.506;7.678;2023-09-18T05:26:32;98803.53;;;21.13;91.59
37778;BME280;23615;51.506;7.678;2023-09-18T05:28:58;98810.88;;;21.39;89.97
37778;BME280;23615;51.506;7.678;2023-09-18T05:31:24;98818.66;;;21.40;89.92
37778;BME280;23615;51.506;7.678;2023-09-18T05:33:49;98831.63;;;21.35;89.92
37778;BME280;23615;51.506;7.678;2023-09-18T05:36:14;98826.78;;;21.40;89.33
37778;BME280;23615;51.506;7.678;2023-09-18T05:38:40;98842.75;;;21.42;89.77
37778;BME280;23615;51.506;7.678;2023-09-18T05:41:05;98833.50;;;21.43;89.67
37778;BME280;23615;51.506;7.678;2023-09-18T05:43:30;98829.53;;;21.32;90.07
37778;BME280;23615;51.506;7.678;2023-09-18T05:45:56;98828.75;;;21.31;90.51
37778;BME280;23615;51.506;7.678;2023-09-18T05:48:21;98835.47;;;21.25;90.61
37778;BME280;23615;51.506;7.678;2023-09-18T05:50:46;98845.69;;;21.28;90.55
37778;BME280;23615;51.506;7.678;2023-09-18T05:53:12;98848.72;;;21.26;90.86
37778;BME280;23615;51.506;7.678;2023-09-18T05:55:38;98855.25;;;21.17;91.35
37778;BME280;23615;51.506;7.678;2023-09-18T05:58:03;98849.53;;;21.18;91.66
37778;BME280;23615;51.506;7.678;2023-09-18T06:00:29;98853.16;;;21.31;91.00
37778;BME280;23615;51.506;7.678;2023-09-18T06:02:56;98862.44;;;21.21;91.37
37778;BME280;23615;51.506;7.678;2023-09-18T06:05:21;98867.41;;;21.19;91.76
37778;BME280;23615;51.506;7.678;2023-09-18T06:07:47;98863.69;;;21.15;92.27
37778;BME280;23615;51.506;7.678;2023-09-18T06:10:12;98853.03;;;21.27;92.01
37778;BME280;23615;51.506;7.678;2023-09-18T06:12:39;98849.53;;;21.18;92.09
37778;BME280;23615;51.506;7.678;2023-09-18T06:15:06;98846.31;;;21.16;92.13
37778;BME280;23615;51.506;7.678;2023-09-18T06:17:35;98857.66;;;21.18;92.59
37778;BME280;23615;51.506;7.678;2023-09-18T06:20:01;98850.31;;;21.27;92.04
37778;BME280;23615;51.506;7.678;2023-09-18T06:22:27;98854.63;;;21.20;92.27
37778;BME280;23615;51.506;7.678;2023-09-18T06:24:52;98863.38;;;21.17;91.87
37778;BME280;23615;51.506;7.678;2023-09-18T06:27:17;98861.97;;;21.19;92.23
37778;BME280;23615;51.506;7.678;2023-09-18T06:29:43;98871.84;;;21.24;92.78
37778;BME280;23615;51.506;7.678;2023-09-18T06:32:09;98868.81;;;21.17;92.58
37778;BME280;23615;51.506;7.678;2023-09-18T06:34:34;98869.13;;;21.15;92.69
37778;BME280;23615;51.506;7.678;2023-09-18T06:36:59;98889.22;;;21.14;92.67
37778;BME280;23615;51.506;7.678;2023-09-18T06:39:25;98896.56;;;21.14;93.22
37778;BME280;23615;51.506;7.678;2023-09-18T06:41:51;98905.97;;;21.16;92.53
37778;BME280;23615;51.506;7.678;2023-09-18T06:44:16;98903.91;;;21.13;93.42
37778;BME280;23615;51.506;7.678;2023-09-18T06:46:42;98908.69;;;21.08;93.58
37778;BME280;23615;51.506;7.678;2023-09-18T06:49:07;98916.84;;;21.16;93.11
37778;BME280;23615;51.506;7.678;2023-09-18T06:51:32;98913.84;;;21.18;93.32
37778;BME280;23615;51.506;7.678;2023-09-18T06:53:58;98899.78;;;21.07;92.35
37778;BME280;23615;51.506;7.678;2023-09-18T06:56:24;98883.50;;;20.99;93.62
37778;BME280;23615;51.506;7.678;2023-09-18T06:58:49;98886.69;;;21.01;93.98
37778;BME280;23615;51.506;7.678;2023-09-18T07:01:19;98903.44;;;21.11;92.93
37778;BME280;23615;51.506;7.678;2023-09-18T07:03:46;98910.00;;;21.10;92.66
37778;BME280;23615;51.506;7.678;2023-09-18T07:06:13;98918.56;;;21.12;93.01
37778;BME280;23615;51.506;7.678;2023-09-18T07:08:38;98910.78;;;21.11;92.71
37778;BME280;23615;51.506;7.678;2023-09-18T07:11:03;98921.16;;;21.09;93.48
37778;BME280;23615;51.506;7.678;2023-09-18T07:13:28;98918.28;;;21.05;93.29
37778;BME280;23615;51.506;7.678;2023-09-18T07:15:54;98921.28;;;21.12;92.88
37778;BME280;23615;51.506;7.678;2023-09-18T07:18:19;98918.13;;;21.10;93.17
37778;BME280;23615;51.506;7.678;2023-09-18T07:20:44;98927.19;;;21.14;93.39
37778;BME280;23615;51.506;7.678;2023-09-18T07:23:10;98925.28;;;21.15;93.08
37778;BME280;23615;51.506;7.678;2023-09-18T07:25:35;98920.66;;;21.15;92.93
37778;BME280;23615;51.506;7.678;2023-09-18T07:28:06;98920.97;;;21.14;93.21
37778;BME280;23615;51.506;7.678;2023-09-18T07:30:33;98911.25;;;21.21;92.75
37778;BME280;23615;51.506;7.678;2023-09-18T07:32:58;98924.69;;;21.18;92.53
37778;BME280;23615;51.506;7.678;2023-09-18T07:35:24;98930.88;;;21.10;93.45
37778;BME280;23615;51.506;7.678;2023-09-18T07:37:50;98932.97;;;21.21;93.33
37778;BME280;23615;51.506;7.678;2023-09-18T07:40:15;98922.44;;;21.28;92.72
37778;BME280;23615;51.506;7.678;2023-09-18T07:42:41;98924.38;;;21.28;92.39
37778;BME280;23615;51.506;7.678;2023-09-18T07:45:09;98922.44;;;21.28;92.13
37778;BME280;23615;51.506;7.678;2023-09-18T07:47:34;98923.06;;;21.17;92.80
37778;BME280;23615;51.506;7.678;2023-09-18T07:50:00;98922.13;;;21.21;92.10
37778;BME280;23615;51.506;7.678;2023-09-18T07:52:25;98931.22;;;21.25;92.41
37778;BME280;23615;51.506;7.678;2023-09-18T07:54:50;98940.97;;;21.18;92.74
37778;BME280;23615;51.506;7.678;2023-09-18T07:57:15;98941.09;;;21.21;92.79
37778;BME280;23615;51.506;7.678;2023-09-18T07:59:41;98940.00;;;21.22;92.91
37778;BME280;23615;51.506;7.678;2023-09-18T08:02:07;98929.31;;;21.17;92.80
37778;BME280;23615;51.506;7.678;2023-09-18T08:04:34;98934.75;;;21.17;93.16
37778;BME280;23615;51.506;7.678;2023-09-18T08:06:59;98950.84;;;21.22;93.42
37778;BME280;23615;51.506;7.678;2023-09-18T08:09:25;98945.75;;;21.21;93.57
37778;BME280;23615;51.506;7.678;2023-09-18T08:11:51;98943.34;;;21.28;93.02
37778;BME280;23615;51.506;7.678;2023-09-18T08:14:20;98947.81;;;21.33;92.59
37778;BME280;23615;51.506;7.678;2023-09-18T08:16:45;98980.06;;;21.34;93.01
37778;BME280;23615;51.506;7.678;2023-09-18T08:19:15;98974.63;;;21.43;92.61
37778;BME280;23615;51.506;7.678;2023-09-18T08:21:41;98970.31;;;21.33;92.60
37778;BME280;23615;51.506;7.678;2023-09-18T08:24:07;98974.31;;;21.36;92.56
37778;BME280;23615;51.506;7.678;2023-09-18T08:26:32;98968.72;;;21.32;92.57
37778;BME280;23615;51.506;7.678;2023-09-18T08:28:57;98971.44;;;21.41;92.28
37778;BME280;23615;51.506;7.678;2023-09-18T08:31:22;98967.28;;;21.43;92.16
37778;BME280;23615;51.506;7.678;2023-09-18T08:33:49;98961.69;;;21.40;93.18
37778;BME280;23615;51.506;7.678;2023-09-18T08:36:15;98968.41;;;21.42;93.93
37778;BME280;23615;51.506;7.678;2023-09-18T08:38:40;98965.66;;;21.59;91.73
37778;BME280;23615;51.506;7.678;2023-09-18T08:41:07;98977.16;;;21.74;90.74
37778;BME280;23615;51.506;7.678;2023-09-18T08:43:34;98977.31;;;21.69;90.89
37778;BME280;23615;51.506;7.678;2023-09-18T08:46:00;98973.00;;;21.67;90.72
37778;BME280;23615;51.506;7.678;2023-09-18T08:48:29;98966.31;;;21.65;90.54
37778;BME280;23615;51.506;7.678;2023-09-18T08:51:01;98972.69;;;21.60;91.25
37778;BME280;23615;51.506;7.678;2023-09-18T08:53:29;98966.34;;;21.48;91.29
37778;BME280;23615;51.506;7.678;2023-09-18T08:55:55;98962.47;;;21.49;90.98
37778;BME280;23615;51.506;7.678;2023-09-18T08:58:24;98966.16;;;21.44;91.59
37778;BME280;23615;51.506;7.678;2023-09-18T09:00:51;98983.56;;;21.52;90.67
37778;BME280;23615;51.506;7.678;2023-09-18T09:03:17;98979.72;;;21.53;91.04
37778;BME280;23615;51.506;7.678;2023-09-18T09:05:43;98975.25;;;21.57;90.45
37778;BME280;23615;51.506;7.678;2023-09-18T09:08:08;98981.78;;;21.64;90.15
37778;BME280;23615;51.506;7.678;2023-09-18T09:10:33;98986.44;;;21.64;89.82
37778;BME280;23615;51.506;7.678;2023-09-18T09:12:59;98996.81;;;21.62;90.06
37778;BME280;23615;51.506;7.678;2023-09-18T09:15:32;98977.19;;;21.56;89.68
37778;BME280;23615;51.506;7.678;2023-09-18T09:18:07;98979.22;;;21.59;90.05
37778;BME280;23615;51.506;7.678;2023-09-18T09:20:34;98982.25;;;21.58;89.16
37778;BME280;23615;51.506;7.678;2023-09-18T09:23:05;98972.84;;;21.64;89.17
37778;BME280;23615;51.506;7.678;2023-09-18T09:25:34;98972.34;;;21.71;88.81
37778;BME280;23615;51.506;7.678;2023-09-18T09:28:02;98968.53;;;21.72;89.43
37778;BME280;23615;51.506;7.678;2023-09-18T09:30:30;98955.13;;;21.75;89.12
37778;BME280;23615;51.506;7.678;2023-09-18T09:32:56;98962.09;;;21.76;89.20
37778;BME280;23615;51.506;7.678;2023-09-18T09:35:27;98973.78;;;21.77;89.81
37778;BME280;23615;51.506;7.678;2023-09-18T09:37:57;98970.09;;;21.81;89.03
37778;BME280;23615;51.506;7.678;2023-09-18T09:40:24;98971.69;;;21.91;88.94
37778;BME280;23615;51.506;7.678;2023-09-18T09:42:54;98981.75;;;21.99;88.93
37778;BME280;23615;51.506;7.678;2023-09-18T09:45:26;98966.41;;;22.03;88.89
37778;BME280;23615;51.506;7.678;2023-09-18T09:47:53;98983.31;;;22.09;88.83
37778;BME280;23615;51.506;7.678;2023-09-18T09:50:19;98983.63;;;22.07;88.77
37778;BME280;23615;51.506;7.678;2023-09-18T09:52:52;98994.00;;;22.14;88.08
37778;BME280;23615;51.506;7.678;2023-09-18T09:55:36;98985.69;;;22.19;86.98
37778;BME280;23615;51.506;7.678;2023-09-18T09:58:05;98982.59;;;22.29;87.78
37778;BME280;23615;51.506;7.678;2023-09-18T10:00:52;98985.13;;;22.34;87.85
37778;BME280;23615;51.506;7.678;2023-09-18T10:03:20;98984.16;;;22.38;86.79
37778;BME280;23615;51.506;7.678;2023-09-18T10:05:51;98980.47;;;22.43;86.44
37778;BME280;23615;51.506;7.678;2023-09-18T10:08:19;98989.25;;;22.40;85.22
37778;BME280;23615;51.506;7.678;2023-09-18T10:10:48;98985.09;;;22.43;86.27
37778;BME280;23615;51.506;7.678;2023-09-18T10:13:19;98992.59;;;22.46;86.69
37778;BME280;23615;51.506;7.678;2023-09-18T10:15:48;98988.28;;;22.45;86.00
37778;BME280;23615;51.506;7.678;2023-09-18T10:18:26;98979.66;;;22.43;85.80
37778;BME280;23615;51.506;7.678;2023-09-18T10:20:58;98987.91;;;22.55;86.14
37778;BME280;23615;51.506;7.678;2023-09-18T10:23:38;98994.16;;;22.55;85.20
37778;BME280;23615;51.506;7.678;2023-09-18T10:26:11;98996.13;;;22.46;83.38
37778;BME280;23615;51.506;7.678;2023-09-18T10:28:39;99003.34;;;22.33;84.41
37778;BME280;23615;51.506;7.678;2023-09-18T10:31:05;99011.03;;;22.31;84.94
37778;BME280;23615;51.506;7.678;2023-09-18T10:33:31;99006.88;;;22.34;84.81
37778;BME280;23615;51.506;7.678;2023-09-18T10:35:58;98994.72;;;22.31;84.43
37778;BME280;23615;51.506;7.678;2023-09-18T10:38:24;98983.72;;;22.28;83.84
37778;BME280;23615;51.506;7.678;2023-09-18T10:40:51;98999.25;;;22.27;84.01
37778;BME280;23615;51.506;7.678;2023-09-18T10:43:17;98998.59;;;22.22;84.32
37778;BME280;23615;51.506;7.678;2023-09-18T10:45:43;99006.91;;;22.25;85.08
37778;BME280;23615;51.506;7.678;2023-09-18T10:48:09;99005.28;;;22.33;85.73
37778;BME280;23615;51.506;7.678;2023-09-18T10:50:38;99003.84;;;22.35;83.87
37778;BME280;23615;51.506;7.678;2023-09-18T10:53:05;99002.09;;;22.31;84.27
37778;BME280;23615;51.506;7.678;2023-09-18T10:55:31;98981.78;;;22.37;85.86
37778;BME280;23615;51.506;7.678;2023-09-18T10:57:59;98989.09;;;22.45;84.80
37778;BME280;23615;51.506;7.678;2023-09-18T11:00:25;98988.75;;;22.47;83.88
37778;BME280;23615;51.506;7.678;2023-09-18T11:02:52;98992.41;;;22.51;84.94
37778;BME280;23615;51.506;7.678;2023-09-18T11:05:32;98989.19;;;22.57;84.65
37778;BME280;23615;51.506;7.678;2023-09-18T11:11:06;98996.78;;;22.72;85.13
37778;BME280;23615;51.506;7.678;2023-09-18T11:13:37;98995.03;;;22.68;83.71
37778;BME280;23615;51.506;7.678;2023-09-18T11:16:14;99002.84;;;22.78;83.85
37778;BME280;23615;51.506;7.678;2023-09-18T11:18:40;98997.88;;;22.80;85.09
37778;BME280;23615;51.506;7.678;2023-09-18T11:21:09;98997.66;;;22.94;82.96
37778;BME280;23615;51.506;7.678;2023-09-18T11:23:37;98988.81;;;22.97;82.27
37778;BME280;23615;51.506;7.678;2023-09-18T11:26:08;98980.47;;;23.02;83.75
37778;BME280;23615;51.506;7.678;2023-09-18T11:28:34;98982.25;;;22.98;82.23
37778;BME280;23615;51.506;7.678;2023-09-18T11:31:00;98984.78;;;23.03;82.80
37778;BME280;23615;51.506;7.678;2023-09-18T11:33:39;98967.31;;;23.04;83.36
37778;BME280;23615;51.506;7.678;2023-09-18T11:36:11;98973.56;;;23.04;82.86
37778;BME280;23615;51.506;7.678;2023-09-18T11:38:59;98962.59;;;23.13;82.64
37778;BME280;23615;51.506;7.678;2023-09-18T11:41:33;98964.19;;;23.14;81.96
37778;BME280;23615;51.506;7.678;2023-09-18T11:46:53;98963.41;;;23.34;81.33
37778;BME280;23615;51.506;7.678;2023-09-18T11:49:20;98957.75;;;23.39;81.91
37778;BME280;23615;51.506;7.678;2023-09-18T11:51:51;98961.38;;;23.43;81.64
37778;BME280;23615;51.506;7.678;2023-09-18T11:54:17;98961.81;;;23.54;80.88
37778;BME280;23615;51.506;7.678;2023-09-18T11:56:43;98968.75;;;23.43;80.72
37778;BME280;23615;51.506;7.678;2023-09-18T11:59:09;98973.16;;;23.35;81.03
37778;BME280;23615;51.506;7.678;2023-09-18T12:01:35;98957.06;;;23.42;80.41
37778;BME280;23615;51.506;7.678;2023-09-18T12:04:02;98947.41;;;23.54;82.04
37778;BME280;23615;51.506;7.678;2023-09-18T12:06:27;98962.66;;;23.67;80.39
37778;BME280;23615;51.506;7.678;2023-09-18T12:08:53;98947.03;;;23.76;81.13
37778;BME280;23615;51.506;7.678;2023-09-18T12:11:19;98966.13;;;24.00;81.45
37778;BME280;23615;51.506;7.678;2023-09-18T12:13:46;98955.19;;;24.21;79.55
37778;BME280;23615;51.506;7.678;2023-09-18T12:16:13;98956.81;;;24.13;78.66
37778;BME280;23615;51.506;7.678;2023-09-18T12:18:45;98951.16;;;24.06;78.69
37778;BME280;23615;51.506;7.678;2023-09-18T12:21:10;98954.91;;;24.02;78.59
37778;BME280;23615;51.506;7.678;2023-09-18T12:23:39;98961.69;;;23.96;77.64
37778;BME280;23615;51.506;7.678;2023-09-18T12:26:05;98956.69;;;23.98;81.01
37778;BME280;23615;51.506;7.678;2023-09-18T12:28:33;98958.84;;;23.92;78.29
37778;BME280;23615;51.506;7.678;2023-09-18T12:30:58;98960.09;;;23.95;78.88
37778;BME280;23615;51.506;7.678;2023-09-18T12:33:25;98951.16;;;23.94;79.07
37778;BME280;23615;51.506;7.678;2023-09-18T12:35:50;98950.00;;;24.07;79.37
37778;BME280;23615;51.506;7.678;2023-09-18T12:38:19;98943.00;;;24.18;78.21
37778;BME280;23615;51.506;7.678;2023-09-18T12:40:48;98943.44;;;24.20;77.37
37778;BME280;23615;51.506;7.678;2023-09-18T12:43:14;98943.56;;;24.12;78.46
37778;BME280;23615;51.506;7.678;2023-09-18T12:45:45;98930.53;;;24.30;77.04
37778;BME280;23615;51.506;7.678;2023-09-18T12:48:12;98926.44;;;24.36;76.34
37778;BME280;23615;51.506;7.678;2023-09-18T12:50:39;98926.44;;;24.48;75.63
37778;BME280;23615;51.506;7.678;2023-09-18T12:55:32;98920.31;;;24.39;75.73
37778;BME280;23615;51.506;7.678;2023-09-18T12:57:58;98911.00;;;24.40;76.27
37778;BME280;23615;51.506;7.678;2023-09-18T13:00:24;98911.44;;;24.42;75.80
37778;BME280;23615;51.506;7.678;2023-09-18T13:02:52;98897.56;;;24.47;74.55
37778;BME280;23615;51.506;7.678;2023-09-18T13:05:20;98911.66;;;24.49;76.28